Time;durP1;ratioP1;P1;durP2;ratioP2;P2;SDS_P1;SDS_P2;PMS_P1;PMS_P2;Temp;Humidity;BMP_temperature;BMP_pressure;BME280_temperature;BME280_humidity;BME280_pressure;Samples;Min_cycle;Max_cycle;Signal;HPM_P1;HPM_P2
2022/08/30 00:01:20;;;;;;;;;3.00;3.00;;;;;20.99;44.12;101112.16;5090182;27;46055;-59
2022/08/30 00:03:46;;;;;;;;;3.00;3.00;;;;;20.97;43.82;101087.09;5096638;27;45322;-57
2022/08/30 00:06:16;;;;;;;;;5.00;3.00;;;;;21.00;44.00;101094.94;5099913;27;45328;-57
2022/08/30 00:08:42;;;;;;;;;2.00;2.00;;;;;20.99;43.98;101095.94;5094207;27;45809;-58
2022/08/30 00:11:13;;;;;;;;;5.50;4.00;;;;;20.98;43.80;101105.03;5103276;27;46494;-59
2022/08/30 00:13:41;;;;;;;;;3.00;3.00;;;;;20.99;44.17;101112.16;5091318;27;45781;-59
2022/08/30 00:16:07;;;;;;;;;4.00;3.00;;;;;20.94;44.02;101118.97;5099373;27;45417;-57
2022/08/30 00:18:34;;;;;;;;;8.33;3.67;;;;;20.90;44.13;101121.09;5097165;27;45428;-59
2022/08/30 00:21:01;;;;;;;;;6.00;4.00;;;;;20.84;44.15;101124.38;5098320;27;47188;-61
2022/08/30 00:23:27;;;;;;;;;5.00;4.00;;;;;20.80;44.33;101131.88;5088313;27;45376;-60
2022/08/30 00:25:52;;;;;;;;;4.00;4.00;;;;;20.74;44.53;101128.91;5100589;27;45391;-59
2022/08/30 00:28:18;;;;;;;;;3.33;2.00;;;;;20.73;44.39;101122.63;5101358;27;45568;-58
2022/08/30 00:30:44;;;;;;;;;3.33;3.33;;;;;20.78;44.27;101125.75;5095461;27;45519;-59
2022/08/30 00:33:11;;;;;;;;;5.00;3.00;;;;;20.76;44.40;101113.38;5100068;27;45562;-57
2022/08/30 00:35:38;;;;;;;;;4.00;4.00;;;;;20.78;44.58;101114.09;5099096;27;45360;-58
2022/08/30 00:38:05;;;;;;;;;5.00;4.00;;;;;20.66;44.95;101113.34;5099539;27;45674;-58
2022/08/30 00:40:30;;;;;;;;;5.67;4.00;;;;;20.52;45.17;101095.69;5094121;27;46789;-59
2022/08/30 00:42:58;;;;;;;;;6.33;4.00;;;;;20.50;45.41;101102.22;5092628;27;45581;-59
2022/08/30 00:45:32;;;;;;;;;3.33;3.00;;;;;20.50;45.35;101100.38;5099542;27;45328;-58
2022/08/30 00:47:58;;;;;;;;;4.00;4.00;;;;;20.55;45.16;101092.69;5097996;27;45716;-59
2022/08/30 00:50:31;;;;;;;;;3.00;3.00;;;;;20.59;45.43;101104.09;5095043;27;46760;-61
2022/08/30 00:53:00;;;;;;;;;3.33;2.33;;;;;20.61;44.88;101102.97;5098981;27;45345;-60
2022/08/30 00:55:26;;;;;;;;;2.67;2.67;;;;;20.63;45.32;101099.28;5099744;27;45444;-60
2022/08/30 00:57:57;;;;;;;;;4.33;4.33;;;;;20.57;45.27;101108.78;5097842;27;45519;-59
2022/08/30 01:00:23;;;;;;;;;5.67;5.33;;;;;20.46;45.69;101092.69;5100482;27;46139;-59
2022/08/30 01:02:48;;;;;;;;;3.00;3.00;;;;;20.49;45.48;101103.22;5095716;27;45638;-61
2022/08/30 01:05:15;;;;;;;;;4.67;4.33;;;;;20.52;45.55;101098.38;5097562;27;45483;-59
2022/08/30 01:07:41;;;;;;;;;4.00;3.00;;;;;20.52;45.67;101102.94;5098208;27;45592;-56
2022/08/30 01:10:09;;;;;;;;;6.00;4.33;;;;;20.53;45.39;101105.50;5097845;27;47602;-58
2022/08/30 01:12:37;;;;;;;;;5.00;3.67;;;;;20.49;45.67;101109.47;5098212;27;46128;-57
2022/08/30 01:15:04;;;;;;;;;6.00;4.00;;;;;20.46;45.38;101104.34;5097527;27;47682;-57
2022/08/30 01:17:30;;;;;;;;;2.67;2.67;;;;;20.37;45.98;101109.69;5099193;27;45610;-58
2022/08/30 01:20:08;;;;;;;;;3.33;2.00;;;;;20.25;46.28;101108.91;5097948;27;46016;-58
2022/08/30 01:22:41;;;;;;;;;2.00;2.00;;;;;20.34;46.09;101108.13;5098592;27;45476;-59
2022/08/30 01:25:09;;;;;;;;;4.00;4.00;;;;;20.28;45.93;101112.19;5098857;27;45468;-58
2022/08/30 01:27:40;;;;;;;;;4.00;4.00;;;;;20.38;45.79;101123.03;5099024;27;45678;-62
2022/08/30 01:30:07;;;;;;;;;5.33;4.00;;;;;20.41;45.67;101122.78;5079409;27;46787;-57
2022/08/30 01:32:43;;;;;;;;;8.00;5.00;;;;;20.49;45.83;101124.84;5099391;27;45404;-59
2022/08/30 01:35:16;;;;;;;;;4.00;3.00;;;;;20.51;45.56;101117.44;5095355;27;45459;-58
2022/08/30 01:37:43;;;;;;;;;5.67;3.00;;;;;20.42;45.82;101118.25;5097433;27;45360;-56
2022/08/30 01:40:10;;;;;;;;;6.67;4.00;;;;;20.27;45.84;101118.59;5100776;27;45466;-57
2022/08/30 01:42:35;;;;;;;;;5.00;5.00;;;;;20.33;46.16;101125.31;5097698;27;45390;-58
2022/08/30 01:45:01;;;;;;;;;3.00;3.00;;;;;20.40;45.64;101139.13;5114176;27;45331;-58
2022/08/30 01:47:26;;;;;;;;;6.00;3.33;;;;;20.45;45.52;101142.31;5095351;27;45527;-58
2022/08/30 01:49:51;;;;;;;;;5.00;3.33;;;;;20.41;45.68;101128.16;5096831;27;45434;-58
2022/08/30 01:52:17;;;;;;;;;4.33;3.00;;;;;20.40;45.88;101137.28;5098832;27;45311;-59
2022/08/30 01:54:45;;;;;;;;;4.67;3.67;;;;;20.42;45.56;101129.91;5093432;27;45200;-59
2022/08/30 01:57:13;;;;;;;;;6.00;4.33;;;;;20.54;45.50;101142.34;5089979;27;45497;-59
2022/08/30 01:59:46;;;;;;;;;4.00;3.33;;;;;20.49;45.22;101125.69;5088600;27;46180;-58
2022/08/30 02:02:15;;;;;;;;;3.00;3.00;;;;;20.54;45.48;101125.25;5098927;27;45479;-58
2022/08/30 02:04:41;;;;;;;;;3.67;3.33;;;;;20.46;45.50;101125.97;5094777;27;45289;-58
2022/08/30 02:07:07;;;;;;;;;4.00;4.00;;;;;20.50;45.55;101132.81;5096888;27;45436;-60
2022/08/30 02:09:32;;;;;;;;;3.00;3.00;;;;;20.50;45.39;101132.81;5103206;27;45493;-59
2022/08/30 02:11:58;;;;;;;;;5.00;4.00;;;;;20.48;45.51;101140.19;5098296;27;45255;-63
2022/08/30 02:14:24;;;;;;;;;5.00;3.00;;;;;20.52;45.43;101151.56;5096861;27;45711;-60
2022/08/30 02:16:49;;;;;;;;;3.00;3.00;;;;;20.53;45.48;101148.72;5095050;27;45619;-60
2022/08/30 02:19:14;;;;;;;;;4.67;4.00;;;;;20.55;45.21;101143.19;5096560;27;45729;-60
2022/08/30 02:21:40;;;;;;;;;4.00;3.00;;;;;20.49;45.26;101154.56;5098356;27;46020;-59
2022/08/30 02:24:05;;;;;;;;;5.00;5.00;;;;;20.44;45.74;101157.63;5099423;27;45478;-58
2022/08/30 02:26:31;;;;;;;;;8.00;4.00;;;;;20.48;45.70;101153.69;5097243;27;45436;-58
2022/08/30 02:28:57;;;;;;;;;6.67;5.00;;;;;20.46;45.65;101163.78;5094050;27;45693;-58
2022/08/30 02:31:23;;;;;;;;;4.00;4.00;;;;;20.31;45.66;101152.47;5100047;27;45413;-59
2022/08/30 02:33:51;;;;;;;;;3.67;2.00;;;;;20.35;45.88;101155.75;5098282;27;45439;-60
2022/08/30 02:36:19;;;;;;;;;6.33;5.00;;;;;20.31;46.08;101148.88;5080156;27;45559;-59
2022/08/30 02:38:45;;;;;;;;;6.33;4.00;;;;;20.37;45.91;101142.94;5094273;27;45526;-59
2022/08/30 02:41:10;;;;;;;;;6.00;6.00;;;;;20.35;45.63;101120.63;5094059;27;45786;-58
2022/08/30 02:43:36;;;;;;;;;2.33;2.00;;;;;20.36;45.81;101130.44;5092543;27;45306;-63
2022/08/30 02:46:01;;;;;;;;;4.67;3.00;;;;;20.40;45.92;101137.28;5098214;27;45316;-59
2022/08/30 02:48:27;;;;;;;;;6.33;4.00;;;;;20.43;45.75;101144.28;5094542;27;45983;-60
2022/08/30 02:50:52;;;;;;;;;3.67;3.67;;;;;20.37;46.03;101142.09;5095414;27;45643;-59
2022/08/30 02:53:19;;;;;;;;;2.00;0.00;;;;;20.42;45.80;101135.31;5098238;27;45334;-60
2022/08/30 02:55:46;;;;;;;;;5.00;3.00;;;;;20.33;46.05;101133.41;5098075;27;45423;-59
2022/08/30 02:58:11;;;;;;;;;5.00;3.67;;;;;20.14;46.40;101136.88;5096258;27;46306;-59
2022/08/30 03:00:38;;;;;;;;;4.33;4.33;;;;;20.13;46.98;101145.97;5094301;27;45454;-59
2022/08/30 03:03:03;;;;;;;;;5.00;4.00;;;;;20.14;46.58;101153.06;5096429;27;45238;-60
2022/08/30 03:05:31;;;;;;;;;6.00;4.33;;;;;20.17;46.64;101157.34;5096836;27;45607;-59
2022/08/30 03:07:57;;;;;;;;;9.00;5.00;;;;;20.20;46.49;101147.16;5088157;27;46396;-60
2022/08/30 03:10:22;;;;;;;;;4.00;4.00;;;;;20.23;46.83;101146.03;5096037;27;45844;-59
2022/08/30 03:12:48;;;;;;;;;6.00;4.00;;;;;20.28;47.70;101143.75;5095465;27;45448;-59
2022/08/30 03:15:14;;;;;;;;;3.67;3.67;;;;;20.34;48.78;101154.03;5096956;27;45637;-58
2022/08/30 03:17:40;;;;;;;;;6.67;4.00;;;;;20.35;49.49;101154.88;5093312;27;48249;-57
2022/08/30 03:20:07;;;;;;;;;5.67;4.00;;;;;20.30;49.75;101163.38;5096524;27;45242;-57
2022/08/30 03:22:33;;;;;;;;;4.00;4.00;;;;;20.18;50.83;101164.44;5094508;27;45478;-58
2022/08/30 03:25:00;;;;;;;;;5.67;5.67;;;;;20.16;52.25;101145.69;5096936;27;45253;-59
2022/08/30 03:27:27;;;;;;;;;5.00;5.00;;;;;20.06;52.88;101133.16;5096774;27;45461;-57
2022/08/30 03:29:52;;;;;;;;;5.33;4.00;;;;;19.95;54.86;101110.63;5094216;27;45546;-57
2022/08/30 03:32:18;;;;;;;;;7.33;5.67;;;;;19.96;54.96;101131.25;5095476;27;45486;-55
2022/08/30 03:34:43;;;;;;;;;8.00;6.00;;;;;19.95;55.58;101137.63;5099298;27;45647;-56
2022/08/30 03:37:08;;;;;;;;;6.33;5.67;;;;;19.91;56.57;101124.50;5095079;27;45979;-57
2022/08/30 03:39:34;;;;;;;;;5.00;5.00;;;;;19.76;56.41;101121.28;5095828;27;45467;-56
2022/08/30 03:41:59;;;;;;;;;8.00;6.33;;;;;19.68;56.55;101124.69;5095598;27;45472;-58
2022/08/30 03:44:25;;;;;;;;;6.00;5.00;;;;;19.54;56.34;101126.81;5086374;27;45387;-56
2022/08/30 03:46:50;;;;;;;;;9.67;6.67;;;;;19.31;57.92;101116.13;5094766;27;45628;-58
2022/08/30 03:49:17;;;;;;;;;11.67;8.00;;;;;19.14;59.20;101093.28;5096396;27;45320;-54
2022/08/30 03:51:43;;;;;;;;;6.00;6.00;;;;;19.02;59.81;101074.59;5095438;27;45367;-57
2022/08/30 03:54:08;;;;;;;;;7.67;6.00;;;;;19.05;60.12;101079.72;5097143;27;45258;-55
2022/08/30 03:56:34;;;;;;;;;6.00;6.00;;;;;19.06;58.71;101070.63;5097030;27;45274;-57
2022/08/30 03:58:59;;;;;;;;;11.00;6.00;;;;;19.04;60.51;101067.22;5095229;27;45522;-58
2022/08/30 04:01:25;;;;;;;;;8.33;6.00;;;;;18.95;60.14;101060.75;5097634;27;45377;-56
2022/08/30 04:03:50;;;;;;;;;6.33;6.33;;;;;18.89;59.36;101055.03;5096509;27;45460;-56
2022/08/30 04:06:16;;;;;;;;;6.33;6.00;;;;;18.90;59.87;101056.75;5096541;27;45358;-57
2022/08/30 04:08:43;;;;;;;;;4.33;4.33;;;;;18.77;59.97;101046.13;5097084;27;45473;-58
2022/08/30 04:11:09;;;;;;;;;7.00;5.33;;;;;18.67;60.27;101051.41;5096118;27;45447;-58
2022/08/30 04:13:34;;;;;;;;;5.67;5.67;;;;;18.58;60.12;101038.66;5096432;27;45429;-57
2022/08/30 04:16:00;;;;;;;;;6.33;6.33;;;;;18.58;60.09;101041.38;5095082;27;45451;-58
2022/08/30 04:18:25;;;;;;;;;5.33;5.33;;;;;18.60;59.47;101060.94;5076126;27;45439;-54
2022/08/30 04:20:52;;;;;;;;;6.33;5.67;;;;;18.61;59.30;101057.25;5077589;27;45192;-57
2022/08/30 04:23:18;;;;;;;;;6.33;6.33;;;;;18.56;59.32;101065.72;5096394;27;45686;-56
2022/08/30 04:25:43;;;;;;;;;9.33;7.00;;;;;18.51;58.89;101064.41;5096680;27;45341;-56
2022/08/30 04:28:09;;;;;;;;;4.33;4.33;;;;;18.48;59.25;101072.72;5096403;27;45344;-57
2022/08/30 04:30:39;;;;;;;;;8.00;6.00;;;;;18.50;59.27;101070.78;5096854;27;45337;-57
2022/08/30 04:33:06;;;;;;;;;4.67;4.67;;;;;18.57;58.70;101063.91;5091317;27;45416;-58
2022/08/30 04:35:31;;;;;;;;;6.67;6.33;;;;;18.65;59.22;101069.56;5096594;27;45429;-58
2022/08/30 04:37:56;;;;;;;;;8.67;7.67;;;;;18.70;59.86;101069.16;5095239;27;45301;-57
2022/08/30 04:40:22;;;;;;;;;5.00;5.00;;;;;18.75;59.76;101075.91;5082193;27;45658;-59
2022/08/30 04:42:52;;;;;;;;;5.67;5.67;;;;;18.78;58.77;101070.25;5085694;27;45362;-56
2022/08/30 04:45:19;;;;;;;;;5.00;5.00;;;;;18.76;57.90;101069.53;5093958;27;45400;-58
2022/08/30 04:47:45;;;;;;;;;8.00;7.00;;;;;18.64;57.88;101062.44;5094613;27;45492;-58
2022/08/30 04:50:13;;;;;;;;;8.00;7.00;;;;;18.60;57.41;101060.09;5099548;27;45481;-57
2022/08/30 04:52:39;;;;;;;;;5.33;5.33;;;;;18.56;57.96;101064.88;5099175;27;45671;-58
2022/08/30 04:55:05;;;;;;;;;6.00;6.00;;;;;18.58;57.45;101068.28;5099142;27;46059;-58
2022/08/30 04:57:31;;;;;;;;;5.67;5.33;;;;;18.62;57.99;101074.28;5098317;27;45497;-59
2022/08/30 04:59:56;;;;;;;;;7.00;5.33;;;;;18.63;57.24;101074.19;5098812;27;45325;-57
2022/08/30 05:02:22;;;;;;;;;5.67;5.67;;;;;18.54;57.42;101080.31;5097036;27;46103;-58
2022/08/30 05:07:32;;;;;;;;;6.00;6.00;;;;;18.62;58.44;101082.38;5098550;27;45484;-59
2022/08/30 05:09:58;;;;;;;;;9.00;6.00;;;;;18.61;57.41;101070.72;5098736;27;45994;-57
2022/08/30 05:12:24;;;;;;;;;8.67;7.33;;;;;18.51;56.65;101056.34;5097651;27;45436;-58
2022/08/30 05:14:50;;;;;;;;;7.00;5.67;;;;;18.53;56.54;101078.59;5098944;27;45508;-57
2022/08/30 05:17:15;;;;;;;;;11.00;9.00;;;;;18.42;57.17;101068.69;5080445;27;45488;-58
2022/08/30 05:19:41;;;;;;;;;9.33;7.00;;;;;18.46;57.90;101082.75;5098356;27;45215;-57
2022/08/30 05:22:06;;;;;;;;;7.33;7.33;;;;;18.46;57.54;101086.31;5097731;27;45496;-57
2022/08/30 05:24:33;;;;;;;;;12.33;8.00;;;;;18.51;57.06;101100.28;5098976;27;45831;-63
2022/08/30 05:26:58;;;;;;;;;8.00;6.33;;;;;18.52;57.01;101103.81;5100497;27;45171;-58
2022/08/30 05:29:24;;;;;;;;;8.00;5.33;;;;;18.48;56.48;101100.50;5098514;27;45270;-57
2022/08/30 05:31:50;;;;;;;;;8.00;5.00;;;;;18.49;56.73;101102.25;5095669;27;45593;-58
2022/08/30 05:34:16;;;;;;;;;6.00;6.00;;;;;18.44;56.13;101106.28;5099147;27;47650;-56
2022/08/30 05:36:41;;;;;;;;;7.67;6.33;;;;;18.52;56.56;101111.91;5096520;27;45556;-57
2022/08/30 05:39:08;;;;;;;;;10.00;8.00;;;;;18.56;57.02;101108.84;5096719;27;45476;-59
2022/08/30 05:41:34;;;;;;;;;6.00;6.00;;;;;18.61;56.81;101108.44;5101962;27;45669;-56
2022/08/30 05:44:02;;;;;;;;;9.67;9.67;;;;;18.66;56.05;101114.38;5101480;27;45330;-59
2022/08/30 05:46:32;;;;;;;;;9.33;6.00;;;;;18.72;55.91;101115.69;5086146;27;45190;-57
2022/08/30 05:49:01;;;;;;;;;10.00;8.00;;;;;18.72;55.28;101097.69;5098933;27;45387;-58
2022/08/30 05:51:29;;;;;;;;;6.67;6.67;;;;;18.77;55.34;101114.34;5096734;27;47196;-58
2022/08/30 05:53:57;;;;;;;;;6.67;5.00;;;;;18.75;55.18;101118.13;5097419;27;47587;-58
2022/08/30 05:56:30;;;;;;;;;7.00;7.00;;;;;18.73;54.90;101120.09;5097518;27;45275;-58
2022/08/30 05:58:56;;;;;;;;;9.67;6.67;;;;;18.75;54.88;101119.00;5099690;27;45579;-58
2022/08/30 06:01:24;;;;;;;;;8.67;7.00;;;;;18.67;54.99;101110.69;5098851;27;45567;-57
2022/08/30 06:03:50;;;;;;;;;8.00;8.00;;;;;18.67;54.96;101121.47;5092353;27;46243;-58
2022/08/30 06:06:16;;;;;;;;;6.00;4.67;;;;;18.63;54.48;101109.19;5093991;27;45448;-58
2022/08/30 06:08:44;;;;;;;;;7.67;6.33;;;;;18.76;54.64;101126.13;5099109;27;45230;-57
2022/08/30 06:11:11;;;;;;;;;9.33;8.00;;;;;18.85;54.57;101125.34;5097619;27;45227;-62
2022/08/30 06:13:36;;;;;;;;;8.00;8.00;;;;;18.85;54.65;101119.94;5098411;27;45594;-59
2022/08/30 06:16:02;;;;;;;;;8.33;8.00;;;;;18.90;54.80;101116.03;5097829;27;45352;-56
2022/08/30 06:18:27;;;;;;;;;13.33;9.00;;;;;18.79;54.61;101100.75;5098048;27;45467;-61
2022/08/30 06:20:53;;;;;;;;;5.67;5.67;;;;;18.98;54.13;101114.41;5102644;27;45580;-58
2022/08/30 06:23:18;;;;;;;;;9.33;6.67;;;;;19.04;54.06;101111.22;5097377;27;45842;-59
2022/08/30 06:25:44;;;;;;;;;9.33;8.00;;;;;19.07;53.95;101113.63;5096548;27;45456;-58
2022/08/30 06:28:09;;;;;;;;;9.00;7.33;;;;;19.06;54.21;101116.47;5080747;27;46195;-57
2022/08/30 06:30:35;;;;;;;;;10.67;8.00;;;;;19.08;54.55;101114.50;5091850;27;45677;-57
2022/08/30 06:33:01;;;;;;;;;10.00;9.00;;;;;19.13;54.51;101117.66;5096179;27;45407;-58
2022/08/30 06:35:27;;;;;;;;;9.33;8.00;;;;;19.19;54.32;101111.75;5093421;27;45489;-57
2022/08/30 06:37:53;;;;;;;;;9.00;7.33;;;;;19.22;54.69;101111.50;5093161;27;45412;-62
2022/08/30 06:40:20;;;;;;;;;9.00;7.00;;;;;19.30;54.02;101119.81;5097961;27;45665;-62
2022/08/30 06:42:46;;;;;;;;;6.67;5.33;;;;;19.25;53.92;101113.94;5096781;27;47143;-62
2022/08/30 06:45:11;;;;;;;;;9.33;8.00;;;;;19.36;54.05;101116.56;5100455;27;45550;-56
2022/08/30 06:47:37;;;;;;;;;11.00;9.00;;;;;19.40;53.72;101118.06;5080095;27;45317;-59
2022/08/30 06:50:03;;;;;;;;;8.33;6.67;;;;;19.44;53.33;101119.50;5089285;27;45327;-58
2022/08/30 06:52:29;;;;;;;;;7.67;6.00;;;;;19.52;53.57;101126.06;5096648;27;45375;-56
2022/08/30 06:54:57;;;;;;;;;8.33;7.33;;;;;19.50;53.23;101117.25;5098280;27;45285;-57
2022/08/30 06:57:22;;;;;;;;;10.33;8.33;;;;;19.60;52.96;101119.06;5098319;27;45456;-56
2022/08/30 06:59:48;;;;;;;;;9.67;8.00;;;;;19.67;53.11;101114.00;5098034;27;45160;-56
2022/08/30 07:02:13;;;;;;;;;10.00;7.00;;;;;19.67;53.04;101125.66;5097169;27;45348;-58
2022/08/30 07:04:39;;;;;;;;;10.33;9.00;;;;;19.55;53.15;101115.91;5077613;27;45306;-55
2022/08/30 07:07:04;;;;;;;;;8.67;7.67;;;;;19.54;53.34;101132.22;5092588;27;45495;-55
2022/08/30 07:09:30;;;;;;;;;4.33;4.33;;;;;19.52;53.55;101139.56;5081599;27;45333;-61
2022/08/30 07:12:01;;;;;;;;;7.67;7.67;;;;;19.58;53.36;101139.09;5092606;27;47280;-57
2022/08/30 07:14:26;;;;;;;;;11.33;10.00;;;;;19.62;53.14;101140.53;5093179;27;45256;-56
2022/08/30 07:16:52;;;;;;;;;13.00;9.00;;;;;19.55;53.68;101133.94;5077331;28;45449;-57
2022/08/30 07:19:17;;;;;;;;;9.00;9.00;;;;;19.53;53.73;101136.75;5087979;27;45672;-59
2022/08/30 07:21:42;;;;;;;;;13.33;8.00;;;;;19.54;53.71;101130.38;5097131;27;46350;-61
2022/08/30 07:24:09;;;;;;;;;8.00;8.00;;;;;19.52;53.69;101142.25;5094399;27;45346;-56
2022/08/30 07:26:50;;;;;;;;;6.33;6.33;;;;;19.65;53.36;101140.25;5077529;27;45268;-59
2022/08/30 07:29:17;;;;;;;;;11.00;10.00;;;;;19.69;53.19;101147.97;5105693;27;45499;-56
2022/08/30 07:31:43;;;;;;;;;11.67;10.67;;;;;19.72;53.59;101136.91;5084949;27;46071;-64
2022/08/30 07:34:08;;;;;;;;;11.00;8.00;;;;;19.86;53.13;101138.41;5079286;27;45327;-58
2022/08/30 07:36:36;;;;;;;;;9.00;7.67;;;;;19.94;53.02;101138.63;5096736;27;45472;-57
2022/08/30 07:39:03;;;;;;;;;8.33;8.33;;;;;20.06;52.80;101138.56;5087544;27;45507;-57
2022/08/30 07:41:31;;;;;;;;;8.67;8.33;;;;;20.09;52.43;101139.13;5090271;27;45544;-57
2022/08/30 07:43:57;;;;;;;;;7.33;7.33;;;;;20.14;52.59;101130.59;5093672;27;45167;-57
2022/08/30 07:46:23;;;;;;;;;10.67;7.33;;;;;20.24;52.20;101136.94;5090556;27;45741;-55
2022/08/30 07:48:49;;;;;;;;;11.33;9.67;;;;;20.16;52.28;101136.72;5093422;27;45571;-55
2022/08/30 07:51:18;;;;;;;;;3.00;3.00;;;;;20.08;52.55;101141.97;5109202;27;46413;-54
2022/08/30 07:53:44;;;;;;;;;8.67;8.00;;;;;20.07;52.31;101135.72;5079919;27;45470;-54
2022/08/30 07:56:10;;;;;;;;;8.67;7.67;;;;;20.23;52.60;101140.63;5090010;27;45392;-54
2022/08/30 07:58:36;;;;;;;;;10.67;9.33;;;;;20.40;51.71;101148.06;5095412;27;45644;-57
2022/08/30 08:01:03;;;;;;;;;8.33;8.33;;;;;20.52;51.73;101144.31;5120541;27;48261;-55
2022/08/30 08:03:29;;;;;;;;;15.00;11.67;;;;;20.70;51.48;101149.06;5094596;27;45290;-54
2022/08/30 08:05:55;;;;;;;;;10.33;8.67;;;;;20.70;51.52;101149.06;5094598;27;45348;-52
2022/08/30 08:08:21;;;;;;;;;10.67;10.67;;;;;20.63;51.41;101147.91;5095215;27;45363;-55
2022/08/30 08:10:47;;;;;;;;;10.00;9.00;;;;;20.77;51.56;101150.22;5094553;27;46266;-55
2022/08/30 08:13:13;;;;;;;;;10.00;10.00;;;;;20.91;51.26;101152.53;5089869;27;45770;-55
2022/08/30 08:15:38;;;;;;;;;11.00;11.00;;;;;21.00;50.88;101161.69;5091868;27;45411;-53
2022/08/30 08:18:05;;;;;;;;;11.33;11.33;;;;;20.91;50.90;101152.53;5093364;27;45614;-53
2022/08/30 08:20:32;;;;;;;;;14.67;13.00;;;;;21.02;51.16;101148.88;5095164;27;45444;-52
2022/08/30 08:22:57;;;;;;;;;10.33;10.33;;;;;21.13;50.64;101152.31;5094760;27;46020;-53
2022/08/30 08:25:23;;;;;;;;;12.67;12.67;;;;;21.09;50.85;101160.81;5090403;27;45210;-55
2022/08/30 08:27:50;;;;;;;;;11.00;11.00;;;;;21.09;51.08;101158.97;5092525;27;45314;-51
2022/08/30 08:30:20;;;;;;;;;9.33;9.33;;;;;21.25;50.93;101163.00;5109705;27;46857;-55
2022/08/30 08:32:47;;;;;;;;;10.00;8.33;;;;;21.30;50.64;101163.44;5076812;27;45371;-53
2022/08/30 08:35:14;;;;;;;;;12.00;11.00;;;;;21.38;50.36;101163.59;5097941;27;45312;-55
2022/08/30 08:37:40;;;;;;;;;11.33;11.00;;;;;21.51;50.70;101166.03;5096992;27;45507;-54
2022/08/30 08:40:06;;;;;;;;;13.67;9.67;;;;;21.81;49.93;101165.84;5099567;27;46841;-56
2022/08/30 08:42:56;;;;;;;;;11.00;9.00;;;;;22.20;49.57;101173.94;5099213;27;45378;-56
2022/08/30 08:45:31;;;;;;;;;8.00;8.00;;;;;22.42;48.43;101175.44;5107503;27;45229;-56
2022/08/30 08:48:09;;;;;;;;;13.33;11.00;;;;;22.56;48.19;101174.94;5095876;27;45456;-55
2022/08/30 08:50:35;;;;;;;;;14.67;11.33;;;;;22.81;48.15;101174.25;5083395;27;45735;-55
2022/08/30 08:55:53;;;;;;;;;11.67;11.33;;;;;23.41;46.33;101182.72;5094643;27;45247;-56
2022/08/30 08:58:27;;;;;;;;;11.33;9.33;;;;;23.48;45.82;101180.25;5090603;27;46959;-56
2022/08/30 09:00:55;;;;;;;;;14.67;13.00;;;;;23.73;45.13;101175.94;5095310;27;46135;-54
2022/08/30 09:03:23;;;;;;;;;11.67;10.33;;;;;24.03;45.63;101175.47;5095636;27;45341;-55
2022/08/30 09:05:50;;;;;;;;;14.50;11.00;;;;;24.37;44.45;101180.16;5097819;27;45566;-56
2022/08/30 09:08:19;;;;;;;;;11.75;10.25;;;;;24.60;44.07;101175.84;5096686;27;46655;-55
2022/08/30 09:11:09;;;;;;;;;8.00;8.00;;;;;24.58;43.83;101183.31;5098648;27;45330;-57
2022/08/30 09:13:35;;;;;;;;;10.25;8.75;;;;;24.66;44.63;101185.22;5079956;27;45810;-55
2022/08/30 09:16:01;;;;;;;;;13.25;12.00;;;;;24.71;44.08;101188.31;5096946;27;45761;-56
2022/08/30 09:18:55;;;;;;;;;10.75;10.75;;;;;24.92;44.29;101186.00;5091638;27;45515;-56
2022/08/30 09:21:25;;;;;;;;;8.75;8.75;;;;;25.06;43.60;101191.88;5071399;27;45459;-55
2022/08/30 09:23:58;;;;;;;;;12.25;11.00;;;;;25.19;43.23;101186.81;5089110;27;45354;-58
2022/08/30 09:26:30;;;;;;;;;13.25;10.25;;;;;25.29;42.52;101182.94;5097596;27;45336;-59
2022/08/30 09:28:57;;;;;;;;;7.50;7.00;;;;;25.25;42.57;101181.53;5081085;27;45428;-56
2022/08/30 09:31:25;;;;;;;;;11.50;10.25;;;;;25.31;42.26;101185.47;5094906;27;47737;-56
2022/08/30 09:33:53;;;;;;;;;18.33;17.00;;;;;25.17;42.19;101195.16;5091123;27;45523;-54
2022/08/30 09:36:25;;;;;;;;;11.50;9.75;;;;;25.17;42.86;101192.41;5092756;27;45514;-54
2022/08/30 09:39:03;;;;;;;;;12.00;11.00;;;;;25.22;42.42;101181.03;5098155;27;45318;-56
2022/08/30 09:41:41;;;;;;;;;10.50;10.00;;;;;25.34;42.38;101189.72;5090559;27;45816;-56
2022/08/30 09:44:23;;;;;;;;;14.00;11.00;;;;;25.27;42.33;101186.84;5090831;27;45415;-60
2022/08/30 09:46:51;;;;;;;;;10.75;9.25;;;;;25.31;43.47;101195.50;5097907;27;45430;-51
2022/08/30 09:49:31;;;;;;;;;8.50;7.00;;;;;25.38;43.04;101188.38;5114089;27;45381;-56
2022/08/30 09:52:09;;;;;;;;;11.00;10.00;;;;;25.41;43.29;101188.91;5107672;27;45635;-57
2022/08/30 09:54:58;;;;;;;;;10.75;10.75;;;;;25.50;43.06;101196.03;5119740;27;45341;-56
2022/08/30 09:57:44;;;;;;;;;11.00;9.25;;;;;25.62;43.41;101191.13;5119422;27;45417;-56
2022/08/30 10:00:18;;;;;;;;;10.50;8.75;;;;;25.63;41.74;101189.25;5087601;27;45484;-57
2022/08/30 10:02:54;;;;;;;;;7.75;7.00;;;;;25.70;42.08;101191.16;5117004;27;45464;-55
2022/08/30 10:05:22;;;;;;;;;10.50;10.50;;;;;25.64;41.74;101191.78;5118811;27;45333;-57
2022/08/30 10:08:20;;;;;;;;;10.00;6.75;;;;;25.54;42.02;101193.84;5118952;27;45506;-55
2022/08/30 10:10:45;;;;;;;;;9.25;9.25;;;;;25.63;41.47;101200.13;5111148;27;45621;-57
2022/08/30 10:13:23;;;;;;;;;8.00;8.00;;;;;25.61;42.09;101189.41;5117578;27;46700;-58
2022/08/30 10:16:03;;;;;;;;;14.00;14.00;;;;;25.76;41.76;101193.19;5118571;27;45370;-57
2022/08/30 10:18:51;;;;;;;;;10.00;10.00;;;;;25.67;41.33;101180.59;5117648;27;45531;-55
2022/08/30 10:21:27;;;;;;;;;14.75;10.00;;;;;25.66;42.09;101178.03;5118735;27;45355;-61
2022/08/30 10:24:07;;;;;;;;;10.25;10.00;;;;;25.89;41.14;101192.69;5117466;27;46336;-56
2022/08/30 10:26:44;;;;;;;;;10.80;8.80;;;;;25.99;41.48;101189.78;5113442;27;45592;-55
2022/08/30 10:29:14;;;;;;;;;11.00;10.50;;;;;26.06;41.79;101190.81;5103132;27;45359;-57
2022/08/30 10:31:52;;;;;;;;;11.75;11.75;;;;;25.96;40.45;101188.25;5119048;27;45405;-55
2022/08/30 10:34:34;;;;;;;;;10.25;9.25;;;;;25.98;41.35;101188.94;5118413;27;45737;-54
2022/08/30 10:37:09;;;;;;;;;9.00;9.00;;;;;26.02;41.19;101200.34;5118837;27;45304;-56
2022/08/30 10:39:44;;;;;;;;;11.00;8.50;;;;;25.95;40.51;101194.75;5087046;27;45493;-55
2022/08/30 10:42:20;;;;;;;;;8.00;8.00;;;;;25.98;40.55;101190.81;5099869;27;45518;-57
2022/08/30 10:44:53;;;;;;;;;8.75;8.50;;;;;25.89;41.33;101184.50;5096440;27;45475;-57
2022/08/30 10:47:34;;;;;;;;;13.00;10.75;;;;;25.93;41.27;101185.88;5109411;27;45353;-57
2022/08/30 10:50:05;;;;;;;;;10.00;10.00;;;;;25.92;41.00;101189.63;5095770;27;45453;-56
2022/08/30 10:52:37;;;;;;;;;11.25;9.25;;;;;25.96;41.38;101192.88;5097466;27;45253;-60
2022/08/30 10:55:03;;;;;;;;;10.50;9.25;;;;;26.03;40.66;101202.03;5094762;27;46872;-61
2022/08/30 10:57:28;;;;;;;;;9.75;8.75;;;;;25.93;41.51;101195.94;5097808;27;45229;-59
2022/08/30 10:59:58;;;;;;;;;10.00;9.25;;;;;25.94;41.67;101197.66;5098063;27;45629;-63
2022/08/30 11:03:01;;;;;;;;;12.25;8.00;;;;;26.03;41.45;101196.59;5096650;27;45288;-68
2022/08/30 11:05:47;;;;;;;;;9.75;9.75;;;;;26.14;41.04;101185.34;5084365;27;45434;-62
2022/08/30 11:08:25;;;;;;;;;11.00;11.00;;;;;26.16;41.08;101192.31;5077538;27;45336;-62
2022/08/30 11:10:59;;;;;;;;;11.25;10.25;;;;;26.17;40.71;101193.16;5078730;27;45451;-62
2022/08/30 11:13:29;;;;;;;;;12.25;12.00;;;;;26.10;40.91;101187.56;5113863;27;45572;-63
2022/08/30 11:16:04;;;;;;;;;11.00;11.00;;;;;26.15;40.68;101193.34;5118274;27;45708;-57
2022/08/30 11:18:41;;;;;;;;;13.20;10.80;;;;;26.26;41.03;101194.84;5100525;27;45626;-58
2022/08/30 11:21:20;;;;;;;;;7.50;7.25;;;;;26.38;40.74;101190.78;5102306;27;45398;-57
2022/08/30 11:24:09;;;;;;;;;11.25;9.75;;;;;26.48;40.62;101189.75;5078063;27;45437;-61
2022/08/30 11:26:44;;;;;;;;;11.50;11.50;;;;;26.58;40.59;101184.94;5076223;27;46867;-59
2022/08/30 11:29:43;;;;;;;;;11.80;11.60;;;;;26.61;40.35;101190.88;5086301;27;45330;-57
2022/08/30 11:32:11;;;;;;;;;10.50;10.50;;;;;26.63;39.84;101186.09;5082359;27;45514;-59
2022/08/30 11:34:46;;;;;;;;;11.25;9.00;;;;;26.64;40.32;101184.22;5118407;27;45547;-60